»·PEaware :: N416JK KMRY-KPVF

N416JK :: KMRY-KPVF

FLIGHT INFORMATION

Flight Status: Arrived
Operator: Privately registered:
United States
More flights under this callsign
Pilot: John K. (4202)
Aircraft: CESSNA 206 STATIONAIR
(C206)
More flights by this aircraft type
Origin: KMRY Monterey Peninsula
United States
Destination: KPVF Placerville
United States
More flights between these airports :: More routes between these airports
Route: SNS V111 MOD V113 LIN V338 MUREQ
File this flight plan on PilotEdge
Remarks:
Altitude:
(Current/Filed)
7,000ft
Speed:
(Current/Filed)
140kts
Departed: 04-Jun-20 07:42 AM
Arrived: 04-Jun-20 08:44 AM
Distance/Time
Traveled:
138nm/1:02
Distance/Time
To Go:
Arrived

Flight Plot

Page will automatically refresh every two minutes.

Flight plan parsing failed; only flown route is shown


Map Options




Map Legend


Flown Route
Filed Route
Departure Airport
Arrival Airport
Navaid (VOR, NDB)
Fix

Horizontal Profiles

Position Reports

Time Latitude Longitude Heading Altitude Ground
Speed
04-Jun-20 07:30 36.588739 -121.855675 345 166ft 0kts
04-Jun-20 07:31 36.588739 -121.855675 345 166ft 0kts
04-Jun-20 07:32 36.588739 -121.855675 345 166ft 0kts
04-Jun-20 07:33 36.588739 -121.855675 345 166ft 0kts
04-Jun-20 07:34 36.588739 -121.855675 345 166ft 0kts
04-Jun-20 07:35 36.588739 -121.855675 345 166ft 0kts
04-Jun-20 07:36 36.588739 -121.855675 345 166ft 0kts
04-Jun-20 07:37 36.588739 -121.855675 345 166ft 0kts
04-Jun-20 07:38 36.588739 -121.855675 345 166ft 0kts
04-Jun-20 07:39 36.589907 -121.856063 0 158ft 0kts
04-Jun-20 07:40 36.589907 -121.856063 0 158ft 0kts
04-Jun-20 07:42 36.587603 -121.845849 110 269ft 106kts
04-Jun-20 07:43 36.600963 -121.831945 343 1885ft 92kts
04-Jun-20 07:44 36.633709 -121.844190 342 2732ft 142kts
04-Jun-20 07:45 36.654084 -121.809410 85 3502ft 146kts
04-Jun-20 07:46 36.656156 -121.760296 85 4286ft 144kts
04-Jun-20 07:47 36.658723 -121.710110 86 5090ft 146kts
04-Jun-20 07:48 36.661374 -121.657454 87 5925ft 148kts
04-Jun-20 07:49 36.663940 -121.605702 87 6739ft 149kts
04-Jun-20 07:50 36.689447 -121.577324 316 7016ft 160kts
04-Jun-20 07:51 36.729899 -121.596531 28 7011ft 175kts
04-Jun-20 07:52 36.758234 -121.546842 50 7018ft 176kts
04-Jun-20 07:53 36.799453 -121.513473 25 7019ft 174kts
04-Jun-20 07:54 36.842355 -121.485026 25 7019ft 174kts
04-Jun-20 07:55 36.885172 -121.456587 25 7019ft 171kts
04-Jun-20 07:56 36.926604 -121.429048 25 7019ft 168kts
04-Jun-20 07:57 36.967799 -121.401625 25 7020ft 167kts
04-Jun-20 07:57 37.002000 -121.378831 25 7020ft 167kts
04-Jun-20 07:59 37.049960 -121.346829 25 7047ft 166kts
04-Jun-20 08:00 37.091397 -121.319153 25 7054ft 167kts
04-Jun-20 08:00 37.126633 -121.295591 25 7053ft 167kts
04-Jun-20 08:02 37.175286 -121.262990 25 7063ft 167kts
04-Jun-20 08:02 37.209382 -121.240138 26 7062ft 167kts
04-Jun-20 08:03 37.250556 -121.212487 26 7063ft 168kts
04-Jun-20 08:04 37.291430 -121.184992 25 7007ft 164kts
04-Jun-20 08:05 37.331368 -121.158122 25 7008ft 162kts
04-Jun-20 08:06 37.371042 -121.131388 25 7008ft 161kts
04-Jun-20 08:07 37.410946 -121.104469 25 7008ft 161kts
04-Jun-20 08:08 37.449559 -121.078386 25 7008ft 161kts
04-Jun-20 08:09 37.489639 -121.051282 25 7009ft 161kts
04-Jun-20 08:10 37.530602 -121.023542 25 7009ft 161kts
04-Jun-20 08:11 37.570038 -120.996804 25 7009ft 161kts
04-Jun-20 08:12 37.599191 -120.977017 25 7009ft 161kts
04-Jun-20 08:13 37.643413 -120.960997 354 7010ft 166kts
04-Jun-20 08:14 37.690230 -120.964481 351 7009ft 167kts
04-Jun-20 08:15 37.736635 -120.969074 351 7009ft 167kts
04-Jun-20 08:16 37.783105 -120.973813 350 7009ft 167kts
04-Jun-20 08:17 37.829483 -120.978582 350 7009ft 167kts
04-Jun-20 08:18 37.876057 -120.983376 350 7018ft 168kts
04-Jun-20 08:19 37.922088 -120.988115 350 7019ft 169kts
04-Jun-20 08:20 37.968904 -120.992939 350 7019ft 169kts
04-Jun-20 08:21 38.015596 -120.997759 350 7019ft 169kts
04-Jun-20 08:22 38.062534 -121.002611 350 7019ft 169kts
04-Jun-20 08:23 38.109252 -120.990141 12 7017ft 173kts
04-Jun-20 08:24 38.155492 -120.972407 13 7018ft 173kts
04-Jun-20 08:25 38.202519 -120.970075 353 6748ft 173kts
04-Jun-20 08:26 38.250197 -120.972515 354 6039ft 169kts
04-Jun-20 08:27 38.295858 -120.974839 354 5511ft 160kts
04-Jun-20 08:28 38.339718 -120.977067 354 5008ft 156kts
04-Jun-20 08:29 38.381323 -120.979169 353 4502ft 145kts
04-Jun-20 08:30 38.421131 -120.981199 354 3998ft 140kts
04-Jun-20 08:31 38.460552 -120.983200 353 3943ft 118kts
04-Jun-20 08:32 38.496319 -120.985053 353 3944ft 112kts
04-Jun-20 08:33 38.527149 -120.986241 354 3946ft 109kts
04-Jun-20 08:34 38.558825 -120.986586 355 3980ft 115kts
04-Jun-20 08:35 38.593064 -120.986932 356 4019ft 129kts
04-Jun-20 08:36 38.629104 -120.980498 43 4018ft 136kts
04-Jun-20 08:37 38.649217 -120.939646 66 4018ft 137kts
04-Jun-20 08:38 38.666433 -120.897009 66 4015ft 123kts
04-Jun-20 08:39 38.681290 -120.860137 66 4017ft 111kts
04-Jun-20 08:40 38.694268 -120.827833 67 3765ft 105kts
04-Jun-20 08:41 38.707982 -120.793740 66 3191ft 107kts
04-Jun-20 08:42 38.718642 -120.767367 66 2744ft 71kts
04-Jun-20 08:43 38.721019 -120.758563 10 2494ft 10kts
04-Jun-20 08:54 38.722964 -120.758043 156 2598ft 0kts

Navigation Log

Ident Type
Flight plan parsing failed, navigation log unavailable